createdAt,value
2017-09-02T00:01:10.751Z,5.10
2017-09-02T00:03:38.512Z,5.30
2017-09-02T00:06:06.239Z,5.55
2017-09-02T00:08:33.985Z,3.87
2017-09-02T00:11:01.753Z,4.70
2017-09-02T00:13:29.488Z,4.62
2017-09-02T00:15:57.211Z,5.85
2017-09-02T00:18:24.969Z,3.70
2017-09-02T00:20:52.701Z,5.20
2017-09-02T00:23:20.452Z,5.00
2017-09-02T00:25:48.207Z,4.78
2017-09-02T00:28:15.927Z,5.15
2017-09-02T00:30:43.715Z,4.72
2017-09-02T00:33:11.432Z,5.10
2017-09-02T00:35:39.158Z,5.60
2017-09-02T00:38:06.920Z,6.85
2017-09-02T00:40:34.656Z,6.68
2017-09-02T00:43:02.460Z,5.18
2017-09-02T00:45:30.199Z,5.57
2017-09-02T00:47:57.926Z,5.00
2017-09-02T00:50:25.703Z,5.40
2017-09-02T00:52:53.447Z,4.78
2017-09-02T00:55:21.241Z,5.45
2017-09-02T00:57:48.969Z,4.85
2017-09-02T01:00:16.713Z,5.15
2017-09-02T01:02:44.480Z,4.30
2017-09-02T01:05:12.207Z,5.05
2017-09-02T01:07:40.014Z,3.75
2017-09-02T01:10:07.744Z,4.30
2017-09-02T01:12:35.488Z,4.70
2017-09-02T01:15:03.270Z,5.50
2017-09-02T01:17:30.996Z,4.30
2017-09-02T01:19:58.781Z,8.52
2017-09-02T01:22:26.509Z,4.57
2017-09-02T01:24:54.235Z,4.70
2017-09-02T01:27:21.999Z,4.93
2017-09-02T01:29:49.724Z,6.50
2017-09-02T01:32:17.512Z,5.50
2017-09-02T01:34:45.239Z,4.80
2017-09-02T01:37:12.967Z,3.92
2017-09-02T01:39:40.724Z,4.85
2017-09-02T01:42:08.446Z,5.15
2017-09-02T01:44:36.238Z,5.60
2017-09-02T01:47:03.970Z,5.32
2017-09-02T01:49:31.691Z,3.60
2017-09-02T01:51:59.450Z,3.70
2017-09-02T01:54:27.180Z,5.30
2017-09-02T01:56:54.960Z,4.72
2017-09-02T01:59:22.697Z,4.43
2017-09-02T02:01:50.428Z,4.95
2017-09-02T02:04:18.193Z,5.55
2017-09-02T02:06:45.921Z,4.10
2017-09-02T02:09:13.717Z,6.10
2017-09-02T02:11:41.452Z,5.28
2017-09-02T02:14:09.172Z,5.57
2017-09-02T02:16:36.936Z,5.70
2017-09-02T02:19:04.669Z,4.30
2017-09-02T02:21:32.456Z,5.68
2017-09-02T02:24:00.193Z,4.75
2017-09-02T02:26:27.917Z,6.60
2017-09-02T02:28:55.676Z,4.80
2017-09-02T02:31:23.401Z,4.80
2017-09-02T02:33:51.180Z,4.47
2017-09-02T02:36:18.905Z,4.10
2017-09-02T02:38:46.630Z,4.78
2017-09-02T02:41:14.388Z,4.70
2017-09-02T02:43:42.109Z,4.47
2017-09-02T02:46:09.896Z,4.43
2017-09-02T02:48:37.623Z,4.93
2017-09-02T02:51:05.348Z,7.20
2017-09-02T02:53:33.117Z,4.10
2017-09-02T02:56:00.862Z,4.20
2017-09-02T02:58:28.653Z,7.72
2017-09-02T03:00:56.380Z,4.90
2017-09-02T03:03:24.104Z,4.20
2017-09-02T03:05:51.861Z,4.62
2017-09-02T03:08:19.593Z,4.85
2017-09-02T03:10:47.376Z,7.57
2017-09-02T03:13:15.108Z,5.85
2017-09-02T03:15:42.841Z,6.50
2017-09-02T03:18:10.607Z,7.35
2017-09-02T03:20:38.336Z,11.65
2017-09-02T03:23:06.122Z,8.38
2017-09-02T03:25:33.860Z,7.95
2017-09-02T03:28:01.591Z,8.70
2017-09-02T03:30:29.354Z,9.02
2017-09-02T03:32:57.080Z,7.82
2017-09-02T03:35:24.867Z,12.27
2017-09-02T03:37:52.597Z,10.30
2017-09-02T03:40:20.324Z,7.40
2017-09-02T03:42:48.081Z,7.32
2017-09-02T03:45:15.826Z,8.00
2017-09-02T03:47:43.624Z,8.65
2017-09-02T03:50:11.351Z,6.75
2017-09-02T03:52:39.082Z,6.55
2017-09-02T03:55:06.841Z,7.70
2017-09-02T03:57:34.568Z,8.55
2017-09-02T04:00:02.352Z,8.15
2017-09-02T04:02:30.084Z,7.62
2017-09-02T04:04:57.812Z,8.52
2017-09-02T04:07:25.572Z,9.77
2017-09-02T04:09:53.305Z,7.65
2017-09-02T04:12:21.190Z,9.35
2017-09-02T04:14:48.916Z,8.48
2017-09-02T04:17:16.646Z,6.82
2017-09-02T04:19:44.412Z,7.80
2017-09-02T04:22:12.140Z,8.02
2017-09-02T04:24:39.935Z,9.27
2017-09-02T04:27:07.717Z,8.50
2017-09-02T04:29:35.451Z,7.50
2017-09-02T04:32:03.210Z,8.73
2017-09-02T04:34:30.935Z,10.85
2017-09-02T04:36:58.719Z,9.98
2017-09-02T04:39:26.451Z,8.10
2017-09-02T04:41:54.177Z,7.78
2017-09-02T04:44:21.931Z,8.50
2017-09-02T04:46:49.670Z,7.32
2017-09-02T04:49:17.451Z,8.43
2017-09-02T04:51:45.171Z,8.43
2017-09-02T04:54:12.896Z,6.50
2017-09-02T04:56:40.655Z,6.18
2017-09-02T04:59:08.383Z,5.70
2017-09-02T05:01:36.167Z,5.80
2017-09-02T05:04:03.893Z,6.03
2017-09-02T05:06:31.618Z,6.37
2017-09-02T05:08:59.377Z,4.90
2017-09-02T05:11:27.104Z,5.37
2017-09-02T05:13:54.887Z,6.00
2017-09-02T05:16:22.614Z,4.68
2017-09-02T05:18:50.345Z,4.47
2017-09-02T05:21:18.095Z,5.32
2017-09-02T05:23:45.832Z,6.10
2017-09-02T05:26:13.613Z,4.95
2017-09-02T05:28:41.339Z,4.47
2017-09-02T05:31:09.062Z,5.18
2017-09-02T05:33:36.827Z,4.60
2017-09-02T05:36:04.557Z,4.97
2017-09-02T05:38:32.340Z,6.85
2017-09-02T05:41:00.077Z,6.18
2017-09-02T05:43:27.808Z,4.00
2017-09-02T05:45:55.563Z,4.93
2017-09-02T05:48:23.296Z,4.43
2017-09-02T05:50:51.072Z,5.00
2017-09-02T05:53:18.796Z,4.80
2017-09-02T05:55:46.523Z,5.45
2017-09-02T05:58:14.284Z,4.37
2017-09-02T06:00:42.011Z,4.00
2017-09-02T06:03:09.791Z,4.68
2017-09-02T06:05:37.520Z,4.20
2017-09-02T06:08:05.247Z,4.30
2017-09-02T06:10:33.013Z,5.00
2017-09-02T06:13:00.745Z,4.15
2017-09-02T06:15:28.535Z,3.25
2017-09-02T06:17:56.263Z,4.53
2017-09-02T06:20:23.995Z,3.65
2017-09-02T06:22:51.756Z,2.80
2017-09-02T06:25:19.484Z,3.92
2017-09-02T06:27:47.274Z,2.90
2017-09-02T06:30:15.004Z,4.25
2017-09-02T06:32:42.722Z,3.03
2017-09-02T06:35:10.481Z,5.40
2017-09-02T06:37:38.208Z,2.30
2017-09-02T06:40:05.992Z,4.53
2017-09-02T06:42:33.716Z,3.30
2017-09-02T06:45:01.447Z,2.20
2017-09-02T06:47:29.210Z,2.55
2017-09-02T06:49:56.931Z,2.60
2017-09-02T06:52:24.729Z,3.22
2017-09-02T06:54:52.455Z,2.55
2017-09-02T06:57:20.183Z,2.22
2017-09-02T06:59:47.940Z,1.62
2017-09-02T07:02:15.672Z,2.95
2017-09-02T07:04:43.452Z,4.85
2017-09-02T07:07:11.179Z,3.20
2017-09-02T07:09:38.924Z,2.78
2017-09-02T07:12:06.691Z,1.52
2017-09-02T07:14:34.417Z,2.37
2017-09-02T07:17:02.221Z,1.98
2017-09-02T07:19:29.953Z,4.05
2017-09-02T07:21:57.680Z,3.00
2017-09-02T07:24:25.439Z,2.40
2017-09-02T07:26:53.175Z,2.72
2017-09-02T07:29:20.956Z,2.70
2017-09-02T07:31:48.681Z,3.83
2017-09-02T07:34:16.412Z,2.95
2017-09-02T07:36:44.172Z,2.53
2017-09-02T07:39:11.900Z,3.10
2017-09-02T07:41:39.689Z,2.50
2017-09-02T07:44:07.432Z,2.85
2017-09-02T07:46:35.174Z,2.28
2017-09-02T07:49:02.924Z,2.70
2017-09-02T07:51:30.652Z,1.70
2017-09-02T07:53:58.431Z,3.70
2017-09-02T07:56:26.168Z,3.55
2017-09-02T07:58:53.896Z,4.75
2017-09-02T08:01:21.660Z,2.60
2017-09-02T08:03:49.397Z,2.42
2017-09-02T08:06:17.189Z,1.37
2017-09-02T08:08:44.934Z,2.47
2017-09-02T08:11:12.663Z,1.62
2017-09-02T08:13:40.428Z,1.58
2017-09-02T08:16:08.157Z,1.90
2017-09-02T08:18:35.940Z,4.72
2017-09-02T08:21:03.678Z,2.25
2017-09-02T08:23:31.401Z,4.20
2017-09-02T08:25:59.153Z,1.70
2017-09-02T08:28:26.879Z,2.05
2017-09-02T08:30:54.657Z,1.52
2017-09-02T08:33:22.394Z,2.30
2017-09-02T08:35:50.124Z,1.80
2017-09-02T08:38:17.883Z,2.05
2017-09-02T08:40:45.641Z,2.15
2017-09-02T08:43:13.432Z,3.10
2017-09-02T08:45:41.163Z,1.50
2017-09-02T08:48:08.912Z,2.35
2017-09-02T08:50:36.668Z,2.72
2017-09-02T08:53:04.395Z,1.62
2017-09-02T08:55:32.177Z,3.58
2017-09-02T08:57:59.899Z,1.83
2017-09-02T09:00:27.624Z,2.00
2017-09-02T09:02:55.389Z,2.42
2017-09-02T09:05:23.120Z,1.87
2017-09-02T09:07:50.900Z,2.47
2017-09-02T09:10:18.625Z,1.37
2017-09-02T09:12:46.356Z,2.05
2017-09-02T09:15:14.112Z,1.73
2017-09-02T09:17:41.853Z,1.55
2017-09-02T09:20:09.665Z,4.60
2017-09-02T09:22:37.392Z,1.73
2017-09-02T09:25:05.120Z,1.27
2017-09-02T09:27:32.881Z,3.05
2017-09-02T09:30:00.607Z,1.65
2017-09-02T09:32:28.392Z,1.33
2017-09-02T09:34:56.117Z,1.80
2017-09-02T09:37:23.848Z,1.45
2017-09-02T09:39:51.604Z,2.50
2017-09-02T09:42:19.328Z,1.60
2017-09-02T09:44:47.112Z,1.50
2017-09-02T09:47:14.837Z,1.62
2017-09-02T09:49:42.560Z,1.35
2017-09-02T09:52:10.337Z,3.75
2017-09-02T09:54:38.077Z,2.60
2017-09-02T09:57:05.860Z,1.92
2017-09-02T09:59:33.615Z,2.00
2017-09-02T10:02:01.348Z,1.48
2017-09-02T10:04:29.103Z,5.15
2017-09-02T10:06:56.828Z,1.70
2017-09-02T10:09:24.614Z,1.77
2017-09-02T10:11:52.338Z,3.80
2017-09-02T10:14:20.075Z,3.03
2017-09-02T10:16:47.832Z,1.90
2017-09-02T10:19:15.573Z,2.58
2017-09-02T10:21:43.351Z,1.75
2017-09-02T10:24:11.082Z,1.33
2017-09-02T10:26:38.804Z,3.80
2017-09-02T10:29:06.556Z,1.48
2017-09-02T10:31:34.288Z,1.95
2017-09-02T10:34:02.071Z,3.72
2017-09-02T10:36:29.792Z,1.73
2017-09-02T10:38:57.525Z,3.08
2017-09-02T10:41:25.294Z,3.65
2017-09-02T10:43:53.018Z,1.60
2017-09-02T10:46:20.808Z,2.58
2017-09-02T10:48:48.547Z,3.05
2017-09-02T10:51:16.275Z,2.75
2017-09-02T10:53:44.041Z,2.55
2017-09-02T10:56:11.787Z,3.42
2017-09-02T10:58:39.550Z,2.90
2017-09-02T11:01:07.280Z,3.40
2017-09-02T11:03:35.063Z,3.42
2017-09-02T11:06:02.792Z,2.60
2017-09-02T11:08:30.515Z,1.95
2017-09-02T11:10:58.275Z,2.22
2017-09-02T11:13:26.000Z,1.40
2017-09-02T11:15:53.780Z,1.83
2017-09-02T11:18:21.506Z,2.05
2017-09-02T11:20:49.247Z,1.45
2017-09-02T11:23:17.000Z,1.60
2017-09-02T11:25:44.740Z,2.12
2017-09-02T11:28:12.547Z,3.65
2017-09-02T11:30:40.280Z,1.52
2017-09-02T11:33:08.003Z,2.08
2017-09-02T11:35:35.767Z,2.83
2017-09-02T11:38:03.493Z,2.90
2017-09-02T11:40:31.286Z,3.87
2017-09-02T11:42:59.020Z,1.48
2017-09-02T11:45:26.767Z,1.98
2017-09-02T11:47:54.528Z,2.40
2017-09-02T11:50:22.257Z,2.75
2017-09-02T11:52:50.040Z,1.92
2017-09-02T11:55:17.777Z,2.78
2017-09-02T11:57:45.509Z,3.20
2017-09-02T12:00:13.272Z,2.17
2017-09-02T12:02:41.000Z,2.78
2017-09-02T12:05:08.780Z,4.07
2017-09-02T12:07:36.508Z,2.42
2017-09-02T12:10:04.247Z,2.50
2017-09-02T12:12:31.999Z,2.40
2017-09-02T12:14:59.740Z,1.62
2017-09-02T12:17:27.548Z,2.95
2017-09-02T12:19:55.283Z,2.20
2017-09-02T12:22:23.028Z,1.55
2017-09-02T12:24:50.785Z,2.37
2017-09-02T12:27:18.512Z,3.90
2017-09-02T12:29:46.295Z,2.80
2017-09-02T12:32:14.037Z,2.35
2017-09-02T12:34:41.762Z,4.78
2017-09-02T12:37:09.525Z,4.80
2017-09-02T12:39:37.261Z,4.68
2017-09-02T12:42:05.043Z,3.42
2017-09-02T12:44:32.773Z,2.40
2017-09-02T12:47:00.501Z,3.08
2017-09-02T12:49:28.264Z,4.07
2017-09-02T12:51:55.991Z,4.43
2017-09-02T12:54:23.777Z,2.97
2017-09-02T12:56:51.503Z,2.17
2017-09-02T12:59:19.227Z,2.28
2017-09-02T13:01:46.984Z,2.25
2017-09-02T13:04:14.744Z,2.40
2017-09-02T13:06:42.572Z,3.65
2017-09-02T13:09:10.305Z,3.03
2017-09-02T13:11:38.039Z,1.98
2017-09-02T13:14:05.796Z,2.25
2017-09-02T13:16:33.529Z,1.42
2017-09-02T13:19:01.315Z,2.47
2017-09-02T13:21:29.048Z,2.95
2017-09-02T13:23:56.780Z,2.28
2017-09-02T13:26:24.541Z,3.37
2017-09-02T13:28:52.275Z,1.50
2017-09-02T13:31:20.061Z,3.47
2017-09-02T13:33:47.812Z,2.72
2017-09-02T13:36:15.549Z,2.80
2017-09-02T13:38:43.307Z,2.12
2017-09-02T13:41:11.050Z,2.67
2017-09-02T13:43:38.832Z,2.83
2017-09-02T13:46:06.556Z,3.65
2017-09-02T13:48:34.303Z,2.33
2017-09-02T13:51:02.056Z,2.17
2017-09-02T13:53:29.784Z,1.80
2017-09-02T13:55:57.586Z,4.32
2017-09-02T13:58:25.317Z,3.87
2017-09-02T14:00:53.044Z,3.15
2017-09-02T14:03:20.804Z,6.70
2017-09-02T14:05:48.541Z,9.70
2017-09-02T14:08:16.348Z,4.25
2017-09-02T14:10:44.081Z,4.07
2017-09-02T14:13:11.807Z,2.22
2017-09-02T14:15:39.573Z,2.45
2017-09-02T14:18:07.308Z,3.40
2017-09-02T14:20:35.098Z,3.20
2017-09-02T14:23:02.829Z,4.43
2017-09-02T14:25:34.569Z,2.40
2017-09-02T14:28:11.499Z,2.15
2017-09-02T14:30:49.862Z,2.55
2017-09-02T14:33:26.476Z,2.60
2017-09-02T14:35:54.208Z,2.60
2017-09-02T14:38:21.997Z,4.85
2017-09-02T14:40:49.723Z,4.45
2017-09-02T14:43:17.472Z,2.50
2017-09-02T14:45:45.224Z,2.80
2017-09-02T14:48:13.429Z,2.55
2017-09-02T14:50:41.252Z,2.67
2017-09-02T14:53:08.984Z,4.10
2017-09-02T14:55:36.713Z,3.55
2017-09-02T14:58:06.461Z,2.40
2017-09-02T15:00:34.415Z,2.53
2017-09-02T15:03:02.204Z,3.80
2017-09-02T15:05:29.931Z,2.60
2017-09-02T15:07:58.936Z,2.37
2017-09-02T15:10:26.685Z,1.73
2017-09-02T15:12:54.412Z,4.43
2017-09-02T15:15:22.204Z,1.50
2017-09-02T15:17:49.932Z,2.37
2017-09-02T15:20:17.661Z,2.75
2017-09-02T15:22:45.419Z,3.15
2017-09-02T15:25:13.152Z,3.05
2017-09-02T15:27:40.936Z,2.83
2017-09-02T15:30:08.665Z,3.22
2017-09-02T15:32:36.460Z,3.03
2017-09-02T15:35:04.221Z,3.72
2017-09-02T15:37:31.960Z,2.80
2017-09-02T15:39:59.747Z,3.37
2017-09-02T15:42:27.475Z,3.20
2017-09-02T15:44:55.206Z,2.30
2017-09-02T15:47:22.964Z,2.90
2017-09-02T15:49:50.691Z,4.03
2017-09-02T15:52:18.773Z,3.00
2017-09-02T15:54:46.499Z,1.75
2017-09-02T15:57:14.230Z,2.80
2017-09-02T15:59:41.986Z,3.55
2017-09-02T16:02:09.712Z,4.93
2017-09-02T16:04:37.497Z,3.25
2017-09-02T16:07:05.227Z,2.00
2017-09-02T16:09:32.959Z,3.45
2017-09-02T16:12:00.919Z,2.03
2017-09-02T16:14:28.673Z,4.10
2017-09-02T16:16:56.479Z,6.07
2017-09-02T16:19:24.203Z,4.68
2017-09-02T16:21:51.933Z,2.53
2017-09-02T16:24:19.687Z,2.50
2017-09-02T16:26:47.412Z,2.78
2017-09-02T16:29:15.205Z,2.90
2017-09-02T16:31:42.932Z,4.12
2017-09-02T16:34:10.672Z,3.35
2017-09-02T16:36:38.424Z,2.92
2017-09-02T16:39:06.153Z,3.17
2017-09-02T16:41:33.985Z,4.82
2017-09-02T16:44:01.713Z,3.92
2017-09-02T16:46:29.440Z,6.43
2017-09-02T16:48:57.191Z,4.70
2017-09-02T16:51:24.915Z,3.22
2017-09-02T16:53:52.740Z,5.82
2017-09-02T16:56:20.468Z,3.15
2017-09-02T16:58:48.192Z,5.85
2017-09-02T17:01:26.944Z,7.53
2017-09-02T17:04:07.880Z,4.22
2017-09-02T17:06:35.688Z,4.37
2017-09-02T17:09:03.433Z,5.00
2017-09-02T17:11:31.155Z,6.28
2017-09-02T17:13:58.920Z,8.30
2017-09-02T17:16:26.651Z,7.32
2017-09-02T17:18:54.440Z,6.47
2017-09-02T17:21:22.169Z,6.72
2017-09-02T17:23:49.899Z,6.50
2017-09-02T17:26:17.660Z,8.15
2017-09-02T17:28:45.392Z,6.72
2017-09-02T17:31:13.179Z,5.65
2017-09-02T17:33:40.904Z,5.65
2017-09-02T17:36:08.632Z,5.32
2017-09-02T17:38:36.392Z,11.57
2017-09-02T17:41:04.116Z,8.45
2017-09-02T17:43:31.897Z,7.10
2017-09-02T17:45:59.619Z,7.80
2017-09-02T17:48:27.350Z,8.43
2017-09-02T17:50:55.113Z,7.90
2017-09-02T17:53:22.839Z,7.57
2017-09-02T17:55:50.619Z,9.00
2017-09-02T17:58:18.377Z,10.45
2017-09-02T18:00:46.101Z,7.90
2017-09-02T18:03:13.859Z,7.85
2017-09-02T18:05:41.609Z,6.68
2017-09-02T18:08:09.396Z,10.82
2017-09-02T18:10:37.124Z,7.55
2017-09-02T18:13:04.852Z,8.48
2017-09-02T18:15:32.992Z,11.07
2017-09-02T18:18:00.953Z,8.13
2017-09-02T18:20:28.756Z,10.60
2017-09-02T18:22:56.543Z,10.80
2017-09-02T18:25:24.296Z,9.43
2017-09-02T18:27:52.057Z,10.18
2017-09-02T18:30:19.796Z,7.90
2017-09-02T18:32:47.662Z,7.43
2017-09-02T18:35:15.399Z,6.30
2017-09-02T18:37:43.128Z,9.32
2017-09-02T18:40:10.891Z,8.10
2017-09-02T18:42:38.640Z,9.40
2017-09-02T18:45:06.539Z,10.32
2017-09-02T18:47:34.273Z,11.70
2017-09-02T18:50:02.056Z,10.80
2017-09-02T18:52:29.825Z,7.97
2017-09-02T18:54:57.581Z,7.57
2017-09-02T18:57:25.395Z,10.57
2017-09-02T18:59:53.129Z,9.32
2017-09-02T19:02:21.626Z,7.53
2017-09-02T19:04:49.434Z,8.90
2017-09-02T19:07:17.208Z,8.23
2017-09-02T19:09:44.996Z,10.63
2017-09-02T19:12:12.764Z,15.07
2017-09-02T19:14:40.556Z,12.85
2017-09-02T19:17:08.322Z,10.45
2017-09-02T19:19:36.072Z,12.63
2017-09-02T19:22:03.853Z,12.48
2017-09-02T19:24:31.589Z,10.85
2017-09-02T19:26:59.331Z,10.80
2017-09-02T19:29:27.092Z,12.23
2017-09-02T19:31:54.824Z,10.10
2017-09-02T19:34:22.612Z,11.45
2017-09-02T19:36:50.345Z,11.00
2017-09-02T19:39:18.083Z,13.82
2017-09-02T19:41:45.850Z,12.57
2017-09-02T19:44:13.581Z,10.45
2017-09-02T19:46:41.376Z,11.68
2017-09-02T19:49:09.109Z,12.13
2017-09-02T19:51:36.846Z,15.55
2017-09-02T19:54:06.464Z,12.75
2017-09-02T19:56:35.110Z,10.80
2017-09-02T19:59:02.900Z,9.35
2017-09-02T20:01:30.633Z,8.23
2017-09-02T20:03:58.365Z,8.10
2017-09-02T20:06:26.130Z,9.38
2017-09-02T20:08:53.867Z,7.97
2017-09-02T20:11:33.287Z,9.60
2017-09-02T20:14:17.953Z,11.25
2017-09-02T20:16:45.724Z,8.60
2017-09-02T20:19:13.459Z,9.18
2017-09-02T20:21:41.245Z,8.85
2017-09-02T20:24:08.986Z,8.55
2017-09-02T20:26:36.729Z,8.07
2017-09-02T20:29:04.552Z,7.70
2017-09-02T20:31:32.336Z,8.80
2017-09-02T20:34:00.125Z,9.25
2017-09-02T20:36:27.863Z,8.68
2017-09-02T20:38:55.598Z,7.70
2017-09-02T20:41:23.366Z,8.57
2017-09-02T20:43:51.097Z,9.07
2017-09-02T20:46:18.888Z,7.50
2017-09-02T20:48:46.620Z,8.15
2017-09-02T20:51:16.085Z,6.97
2017-09-02T20:53:43.844Z,6.93
2017-09-02T20:56:11.573Z,7.95
2017-09-02T20:58:39.361Z,8.88
2017-09-02T21:01:07.158Z,8.50
2017-09-02T21:03:36.142Z,10.95
2017-09-02T21:06:04.073Z,8.20
2017-09-02T21:08:31.804Z,8.75
2017-09-02T21:10:59.594Z,7.75
2017-09-02T21:13:27.330Z,7.87
2017-09-02T21:15:55.065Z,8.57
2017-09-02T21:18:22.822Z,8.18
2017-09-02T21:20:50.547Z,8.18
2017-09-02T21:23:18.360Z,8.82
2017-09-02T21:25:46.097Z,10.65
2017-09-02T21:28:13.834Z,11.73
2017-09-02T21:30:41.600Z,11.55
2017-09-02T21:33:09.325Z,9.27
2017-09-02T21:35:37.116Z,10.10
2017-09-02T21:38:04.844Z,9.45
2017-09-02T21:40:32.576Z,7.87
2017-09-02T21:43:00.337Z,8.13
2017-09-02T21:45:28.071Z,7.45
2017-09-02T21:47:55.852Z,8.68
2017-09-02T21:50:23.605Z,8.70
2017-09-02T21:52:51.340Z,9.88
2017-09-02T21:55:19.108Z,9.55
2017-09-02T21:57:46.845Z,9.93
2017-09-02T22:00:14.648Z,9.68
2017-09-02T22:02:42.381Z,10.90
2017-09-02T22:05:10.116Z,12.57
2017-09-02T22:07:37.877Z,11.05
2017-09-02T22:10:05.606Z,10.75
2017-09-02T22:12:33.401Z,11.35
2017-09-02T22:15:01.143Z,11.57
2017-09-02T22:17:28.884Z,10.82
2017-09-02T22:19:56.656Z,12.27
2017-09-02T22:22:24.383Z,13.43
2017-09-02T22:24:52.188Z,11.48
2017-09-02T22:27:19.921Z,10.90
2017-09-02T22:29:47.656Z,12.40
2017-09-02T22:32:16.417Z,11.18
2017-09-02T22:34:44.151Z,10.73
2017-09-02T22:37:11.945Z,10.25
2017-09-02T22:39:39.679Z,12.98
2017-09-02T22:42:07.417Z,13.52
2017-09-02T22:44:35.180Z,11.88
2017-09-02T22:47:02.920Z,10.82
2017-09-02T22:49:30.707Z,12.37
2017-09-02T22:51:58.443Z,11.30
2017-09-02T22:54:26.231Z,9.95
2017-09-02T22:56:54.016Z,10.45
2017-09-02T22:59:21.751Z,21.58
2017-09-02T23:01:49.543Z,15.48
2017-09-02T23:04:17.277Z,12.15
2017-09-02T23:06:45.012Z,10.25
2017-09-02T23:09:12.780Z,10.60
2017-09-02T23:11:40.516Z,13.35
2017-09-02T23:14:08.311Z,12.18
2017-09-02T23:16:36.044Z,14.02
2017-09-02T23:19:03.784Z,13.13
2017-09-02T23:21:31.560Z,13.00
2017-09-02T23:23:59.308Z,11.95
2017-09-02T23:26:27.104Z,13.02
2017-09-02T23:28:54.862Z,14.30
2017-09-02T23:31:22.597Z,13.02
2017-09-02T23:33:50.372Z,14.13
2017-09-02T23:36:18.099Z,14.57
2017-09-02T23:38:45.900Z,15.90
2017-09-02T23:41:13.634Z,13.85
2017-09-02T23:43:41.372Z,13.35
2017-09-02T23:46:09.137Z,12.50
2017-09-02T23:48:36.875Z,12.37
2017-09-02T23:51:04.666Z,11.68
2017-09-02T23:53:32.396Z,12.23
2017-09-02T23:56:00.139Z,14.98
2017-09-02T23:58:27.904Z,11.93
